sensor_id;sensor_type;location;lat;lon;timestamp;pressure;altitude;pressure_sealevel;temperature;humidity
54872;BME280;43914;57.680;11.982;2023-04-22T00:01:05;100894.47;;;10.11;46.91
54872;BME280;43914;57.680;11.982;2023-04-22T00:03:31;100892.23;;;10.08;46.85
54872;BME280;43914;57.680;11.982;2023-04-22T00:05:57;100892.29;;;10.06;46.89
54872;BME280;43914;57.680;11.982;2023-04-22T00:08:23;100888.50;;;10.05;46.93
54872;BME280;43914;57.680;11.982;2023-04-22T00:10:50;100886.40;;;10.03;46.98
54872;BME280;43914;57.680;11.982;2023-04-22T00:13:15;100881.21;;;10.02;47.09
54872;BME280;43914;57.680;11.982;2023-04-22T00:15:41;100877.41;;;10.00;47.26
54872;BME280;43914;57.680;11.982;2023-04-22T00:18:06;100878.70;;;9.98;47.38
54872;BME280;43914;57.680;11.982;2023-04-22T00:20:41;100874.79;;;9.96;47.50
54872;BME280;43914;57.680;11.982;2023-04-22T00:23:11;100873.08;;;9.96;47.37
54872;BME280;43914;57.680;11.982;2023-04-22T00:25:38;100871.29;;;9.92;47.57
54872;BME280;43914;57.680;11.982;2023-04-22T00:28:04;100869.02;;;9.91;47.60
54872;BME280;43914;57.680;11.982;2023-04-22T00:30:30;100866.67;;;9.89;47.82
54872;BME280;43914;57.680;11.982;2023-04-22T00:32:55;100868.41;;;9.87;47.78
54872;BME280;43914;57.680;11.982;2023-04-22T00:35:21;100866.56;;;9.86;47.95
54872;BME280;43914;57.680;11.982;2023-04-22T00:37:47;100864.22;;;9.84;48.10
54872;BME280;43914;57.680;11.982;2023-04-22T00:40:13;100863.08;;;9.83;48.21
54872;BME280;43914;57.680;11.982;2023-04-22T00:42:38;100854.58;;;9.79;48.32
54872;BME280;43914;57.680;11.982;2023-04-22T00:45:09;100860.95;;;9.81;48.21
54872;BME280;43914;57.680;11.982;2023-04-22T00:47:36;100854.45;;;9.79;48.13
54872;BME280;43914;57.680;11.982;2023-04-22T00:50:03;100853.89;;;9.75;48.01
54872;BME280;43914;57.680;11.982;2023-04-22T00:52:29;100851.79;;;9.75;48.23
54872;BME280;43914;57.680;11.982;2023-04-22T00:54:55;100852.96;;;9.74;48.34
54872;BME280;43914;57.680;11.982;2023-04-22T00:57:21;100846.80;;;9.73;48.39
54872;BME280;43914;57.680;11.982;2023-04-22T00:59:47;100849.88;;;9.75;48.40
54872;BME280;43914;57.680;11.982;2023-04-22T01:02:13;100847.08;;;9.71;48.45
54872;BME280;43914;57.680;11.982;2023-04-22T01:04:40;100849.30;;;9.72;48.46
54872;BME280;43914;57.680;11.982;2023-04-22T01:07:06;100851.58;;;9.71;48.69
54872;BME280;43914;57.680;11.982;2023-04-22T01:09:32;100849.20;;;9.71;49.03
54872;BME280;43914;57.680;11.982;2023-04-22T01:11:57;100850.00;;;9.71;49.22
54872;BME280;43914;57.680;11.982;2023-04-22T01:14:23;100845.52;;;9.71;49.23
54872;BME280;43914;57.680;11.982;2023-04-22T01:16:50;100847.83;;;9.69;49.37
54872;BME280;43914;57.680;11.982;2023-04-22T01:19:18;100846.53;;;9.66;49.92
54872;BME280;43914;57.680;11.982;2023-04-22T01:21:44;100847.06;;;9.60;49.98
54872;BME280;43914;57.680;11.982;2023-04-22T01:24:11;100846.84;;;9.54;50.19
54872;BME280;43914;57.680;11.982;2023-04-22T01:26:36;100844.91;;;9.46;50.46
54872;BME280;43914;57.680;11.982;2023-04-22T01:29:03;100843.37;;;9.40;50.84
54872;BME280;43914;57.680;11.982;2023-04-22T01:31:29;100843.19;;;9.34;50.61
54872;BME280;43914;57.680;11.982;2023-04-22T01:33:55;100844.92;;;9.28;51.06
54872;BME280;43914;57.680;11.982;2023-04-22T01:36:21;100846.69;;;9.22;51.37
54872;BME280;43914;57.680;11.982;2023-04-22T01:38:46;100846.27;;;9.14;51.49
54872;BME280;43914;57.680;11.982;2023-04-22T01:41:12;100845.38;;;9.06;51.63
54872;BME280;43914;57.680;11.982;2023-04-22T01:43:38;100845.49;;;9.02;51.97
54872;BME280;43914;57.680;11.982;2023-04-22T01:46:04;100847.23;;;8.94;52.23
54872;BME280;43914;57.680;11.982;2023-04-22T01:48:30;100839.21;;;8.88;52.52
54872;BME280;43914;57.680;11.982;2023-04-22T01:50:56;100840.76;;;8.84;52.46
54872;BME280;43914;57.680;11.982;2023-04-22T01:53:22;100846.00;;;8.80;52.55
54872;BME280;43914;57.680;11.982;2023-04-22T01:55:47;100838.70;;;8.76;52.72
54872;BME280;43914;57.680;11.982;2023-04-22T01:58:13;100842.68;;;8.72;53.17
54872;BME280;43914;57.680;11.982;2023-04-22T02:00:38;100840.58;;;8.69;53.22
54872;BME280;43914;57.680;11.982;2023-04-22T02:03:04;100837.23;;;8.65;53.12
54872;BME280;43914;57.680;11.982;2023-04-22T02:05:29;100838.05;;;8.62;53.37
54872;BME280;43914;57.680;11.982;2023-04-22T02:07:55;100832.75;;;8.62;53.53
54872;BME280;43914;57.680;11.982;2023-04-22T02:10:20;100831.45;;;8.59;53.80
54872;BME280;43914;57.680;11.982;2023-04-22T02:12:46;100834.13;;;8.57;54.19
54872;BME280;43914;57.680;11.982;2023-04-22T02:15:12;100833.34;;;8.56;54.36
54872;BME280;43914;57.680;11.982;2023-04-22T02:17:37;100830.45;;;8.54;54.35
54872;BME280;43914;57.680;11.982;2023-04-22T02:20:04;100831.35;;;8.52;54.55
54872;BME280;43914;57.680;11.982;2023-04-22T02:22:30;100826.98;;;8.49;54.90
54872;BME280;43914;57.680;11.982;2023-04-22T02:24:56;100827.01;;;8.45;55.01
54872;BME280;43914;57.680;11.982;2023-04-22T02:27:22;100820.02;;;8.41;55.12
54872;BME280;43914;57.680;11.982;2023-04-22T02:29:47;100817.33;;;8.37;55.47
54872;BME280;43914;57.680;11.982;2023-04-22T02:32:13;100814.39;;;8.35;55.64
54872;BME280;43914;57.680;11.982;2023-04-22T02:34:39;100811.89;;;8.33;55.71
54872;BME280;43914;57.680;11.982;2023-04-22T02:37:05;100807.09;;;8.31;56.10
54872;BME280;43914;57.680;11.982;2023-04-22T02:39:31;100805.05;;;8.32;56.36
54872;BME280;43914;57.680;11.982;2023-04-22T02:41:56;100799.40;;;8.30;56.64
54872;BME280;43914;57.680;11.982;2023-04-22T02:44:22;100798.83;;;8.29;56.79
54872;BME280;43914;57.680;11.982;2023-04-22T02:46:47;100797.46;;;8.30;57.00
54872;BME280;43914;57.680;11.982;2023-04-22T02:49:12;100797.89;;;8.29;57.26
54872;BME280;43914;57.680;11.982;2023-04-22T02:51:38;100796.81;;;8.29;57.38
54872;BME280;43914;57.680;11.982;2023-04-22T02:54:04;100797.86;;;8.28;57.61
54872;BME280;43914;57.680;11.982;2023-04-22T02:56:29;100796.27;;;8.26;57.77
54872;BME280;43914;57.680;11.982;2023-04-22T02:58:56;100793.93;;;8.26;58.21
54872;BME280;43914;57.680;11.982;2023-04-22T03:01:21;100790.92;;;8.22;58.37
54872;BME280;43914;57.680;11.982;2023-04-22T03:03:47;100786.97;;;8.21;58.60
54872;BME280;43914;57.680;11.982;2023-04-22T03:06:12;100783.56;;;8.18;58.53
54872;BME280;43914;57.680;11.982;2023-04-22T03:08:38;100780.35;;;8.11;58.89
54872;BME280;43914;57.680;11.982;2023-04-22T03:11:04;100779.45;;;8.08;58.85
54872;BME280;43914;57.680;11.982;2023-04-22T03:13:29;100778.27;;;8.02;59.19
54872;BME280;43914;57.680;11.982;2023-04-22T03:15:55;100779.55;;;7.97;59.49
54872;BME280;43914;57.680;11.982;2023-04-22T03:18:20;100780.86;;;7.91;59.79
54872;BME280;43914;57.680;11.982;2023-04-22T03:20:46;100778.69;;;7.85;60.31
54872;BME280;43914;57.680;11.982;2023-04-22T03:23:12;100778.19;;;7.78;60.64
54872;BME280;43914;57.680;11.982;2023-04-22T03:25:37;100779.15;;;7.72;60.82
54872;BME280;43914;57.680;11.982;2023-04-22T03:28:03;100779.67;;;7.69;61.23
54872;BME280;43914;57.680;11.982;2023-04-22T03:30:28;100775.23;;;7.67;61.41
54872;BME280;43914;57.680;11.982;2023-04-22T03:32:55;100771.98;;;7.66;61.39
54872;BME280;43914;57.680;11.982;2023-04-22T03:35:20;100771.36;;;7.62;61.63
54872;BME280;43914;57.680;11.982;2023-04-22T03:37:46;100765.70;;;7.59;61.75
54872;BME280;43914;57.680;11.982;2023-04-22T03:40:11;100764.23;;;7.57;61.83
54872;BME280;43914;57.680;11.982;2023-04-22T03:42:37;100761.95;;;7.56;61.96
54872;BME280;43914;57.680;11.982;2023-04-22T03:45:03;100757.24;;;7.55;62.06
54872;BME280;43914;57.680;11.982;2023-04-22T03:47:28;100756.52;;;7.54;62.46
54872;BME280;43914;57.680;11.982;2023-04-22T03:49:54;100750.95;;;7.50;62.20
54872;BME280;43914;57.680;11.982;2023-04-22T03:52:19;100750.69;;;7.48;62.47
54872;BME280;43914;57.680;11.982;2023-04-22T03:54:45;100750.36;;;7.46;62.30
54872;BME280;43914;57.680;11.982;2023-04-22T03:57:10;100749.10;;;7.43;62.52
54872;BME280;43914;57.680;11.982;2023-04-22T03:59:36;100744.05;;;7.43;62.70
54872;BME280;43914;57.680;11.982;2023-04-22T04:02:01;100739.33;;;7.42;62.81
54872;BME280;43914;57.680;11.982;2023-04-22T04:04:26;100739.64;;;7.43;63.25
54872;BME280;43914;57.680;11.982;2023-04-22T04:06:54;100742.44;;;7.42;63.61
54872;BME280;43914;57.680;11.982;2023-04-22T04:09:20;100740.80;;;7.42;63.52
54872;BME280;43914;57.680;11.982;2023-04-22T04:11:46;100738.50;;;7.40;63.42
54872;BME280;43914;57.680;11.982;2023-04-22T04:14:11;100733.30;;;7.37;63.33
54872;BME280;43914;57.680;11.982;2023-04-22T04:16:37;100735.66;;;7.38;63.23
54872;BME280;43914;57.680;11.982;2023-04-22T04:19:02;100739.19;;;7.41;63.18
54872;BME280;43914;57.680;11.982;2023-04-22T04:21:28;100735.86;;;7.42;63.27
54872;BME280;43914;57.680;11.982;2023-04-22T04:23:53;100735.27;;;7.44;63.35
54872;BME280;43914;57.680;11.982;2023-04-22T04:26:19;100738.61;;;7.44;63.30
54872;BME280;43914;57.680;11.982;2023-04-22T04:28:45;100737.57;;;7.44;63.69
54872;BME280;43914;57.680;11.982;2023-04-22T04:31:11;100736.27;;;7.47;64.00
54872;BME280;43914;57.680;11.982;2023-04-22T04:33:37;100735.91;;;7.49;63.87
54872;BME280;43914;57.680;11.982;2023-04-22T04:36:04;100732.56;;;7.49;64.08
54872;BME280;43914;57.680;11.982;2023-04-22T04:38:29;100737.52;;;7.51;63.99
54872;BME280;43914;57.680;11.982;2023-04-22T04:40:55;100731.04;;;7.55;63.98
54872;BME280;43914;57.680;11.982;2023-04-22T04:43:20;100734.48;;;7.61;63.90
54872;BME280;43914;57.680;11.982;2023-04-22T04:45:50;100733.48;;;7.65;63.89
54872;BME280;43914;57.680;11.982;2023-04-22T04:48:17;100734.23;;;7.70;63.87
54872;BME280;43914;57.680;11.982;2023-04-22T04:50:44;100729.26;;;7.75;64.04
54872;BME280;43914;57.680;11.982;2023-04-22T04:53:10;100731.60;;;7.76;64.19
54872;BME280;43914;57.680;11.982;2023-04-22T04:55:36;100734.17;;;7.79;64.15
54872;BME280;43914;57.680;11.982;2023-04-22T04:58:03;100730.38;;;7.82;64.16
54872;BME280;43914;57.680;11.982;2023-04-22T05:00:29;100734.11;;;7.83;64.38
54872;BME280;43914;57.680;11.982;2023-04-22T05:02:54;100733.84;;;7.86;64.35
54872;BME280;43914;57.680;11.982;2023-04-22T05:05:20;100732.77;;;7.88;64.74
54872;BME280;43914;57.680;11.982;2023-04-22T05:07:46;100727.19;;;7.90;64.77
54872;BME280;43914;57.680;11.982;2023-04-22T05:10:12;100730.79;;;7.94;65.07
54872;BME280;43914;57.680;11.982;2023-04-22T05:12:37;100727.23;;;7.96;65.21
54872;BME280;43914;57.680;11.982;2023-04-22T05:15:03;100727.96;;;7.99;65.57
54872;BME280;43914;57.680;11.982;2023-04-22T05:17:29;100722.27;;;7.97;65.98
54872;BME280;43914;57.680;11.982;2023-04-22T05:19:55;100724.55;;;8.01;65.77
54872;BME280;43914;57.680;11.982;2023-04-22T05:22:20;100723.44;;;8.03;66.33
54872;BME280;43914;57.680;11.982;2023-04-22T05:24:46;100718.91;;;8.05;66.56
54872;BME280;43914;57.680;11.982;2023-04-22T05:27:12;100718.64;;;8.07;66.61
54872;BME280;43914;57.680;11.982;2023-04-22T05:29:37;100711.89;;;8.11;66.66
54872;BME280;43914;57.680;11.982;2023-04-22T05:32:03;100703.92;;;8.13;66.90
54872;BME280;43914;57.680;11.982;2023-04-22T05:34:28;100707.56;;;8.19;66.89
54872;BME280;43914;57.680;11.982;2023-04-22T05:36:54;100703.43;;;8.22;67.05
54872;BME280;43914;57.680;11.982;2023-04-22T05:39:19;100701.02;;;8.27;66.96
54872;BME280;43914;57.680;11.982;2023-04-22T05:41:45;100695.81;;;8.27;66.85
54872;BME280;43914;57.680;11.982;2023-04-22T05:44:10;100695.45;;;8.35;66.72
54872;BME280;43914;57.680;11.982;2023-04-22T05:46:36;100694.89;;;8.40;66.59
54872;BME280;43914;57.680;11.982;2023-04-22T05:49:01;100690.05;;;8.44;66.47
54872;BME280;43914;57.680;11.982;2023-04-22T05:51:27;100690.58;;;8.47;66.26
54872;BME280;43914;57.680;11.982;2023-04-22T05:53:52;100682.65;;;8.51;66.18
54872;BME280;43914;57.680;11.982;2023-04-22T05:56:19;100682.27;;;8.55;66.03
54872;BME280;43914;57.680;11.982;2023-04-22T05:58:45;100678.11;;;8.60;65.88
54872;BME280;43914;57.680;11.982;2023-04-22T06:01:11;100677.02;;;8.67;65.50
54872;BME280;43914;57.680;11.982;2023-04-22T06:03:37;100678.05;;;8.73;65.24
54872;BME280;43914;57.680;11.982;2023-04-22T06:06:03;100671.48;;;8.78;64.93
54872;BME280;43914;57.680;11.982;2023-04-22T06:08:29;100673.44;;;8.87;64.52
54872;BME280;43914;57.680;11.982;2023-04-22T06:10:55;100670.17;;;8.92;64.25
54872;BME280;43914;57.680;11.982;2023-04-22T06:13:20;100668.79;;;8.98;63.86
54872;BME280;43914;57.680;11.982;2023-04-22T06:15:46;100665.21;;;9.03;63.48
54872;BME280;43914;57.680;11.982;2023-04-22T06:18:11;100662.75;;;9.07;63.15
54872;BME280;43914;57.680;11.982;2023-04-22T06:20:37;100662.41;;;9.14;62.81
54872;BME280;43914;57.680;11.982;2023-04-22T06:23:03;100661.02;;;9.21;62.76
54872;BME280;43914;57.680;11.982;2023-04-22T06:25:30;100657.25;;;9.27;62.50
54872;BME280;43914;57.680;11.982;2023-04-22T06:27:57;100654.95;;;9.37;62.21
54872;BME280;43914;57.680;11.982;2023-04-22T06:30:22;100651.35;;;9.43;61.91
54872;BME280;43914;57.680;11.982;2023-04-22T06:32:49;100655.66;;;9.55;61.47
54872;BME280;43914;57.680;11.982;2023-04-22T06:35:15;100655.73;;;9.67;60.77
54872;BME280;43914;57.680;11.982;2023-04-22T06:37:40;100649.56;;;9.74;60.41
54872;BME280;43914;57.680;11.982;2023-04-22T06:40:06;100646.04;;;9.83;60.10
54872;BME280;43914;57.680;11.982;2023-04-22T06:42:32;100641.75;;;9.92;59.74
54872;BME280;43914;57.680;11.982;2023-04-22T06:44:57;100638.93;;;9.99;59.25
54872;BME280;43914;57.680;11.982;2023-04-22T06:47:23;100633.16;;;10.08;60.62
54872;BME280;43914;57.680;11.982;2023-04-22T06:49:48;100631.20;;;10.58;65.19
54872;BME280;43914;57.680;11.982;2023-04-22T06:52:14;100623.14;;;11.40;64.61
54872;BME280;43914;57.680;11.982;2023-04-22T06:54:40;100620.81;;;11.93;61.64
54872;BME280;43914;57.680;11.982;2023-04-22T06:57:05;100617.21;;;12.32;57.49
54872;BME280;43914;57.680;11.982;2023-04-22T06:59:32;100618.77;;;12.22;54.60
54872;BME280;43914;57.680;11.982;2023-04-22T07:01:58;100622.78;;;12.11;53.51
54872;BME280;43914;57.680;11.982;2023-04-22T07:04:23;100623.42;;;11.98;53.20
54872;BME280;43914;57.680;11.982;2023-04-22T07:06:49;100621.05;;;11.93;54.05
54872;BME280;43914;57.680;11.982;2023-04-22T07:09:14;100623.41;;;12.13;54.20
54872;BME280;43914;57.680;11.982;2023-04-22T07:11:40;100621.79;;;12.10;52.37
54872;BME280;43914;57.680;11.982;2023-04-22T07:14:05;100621.78;;;12.04;52.07
54872;BME280;43914;57.680;11.982;2023-04-22T07:16:31;100618.44;;;12.01;51.71
54872;BME280;43914;57.680;11.982;2023-04-22T07:18:56;100616.55;;;12.00;51.57
54872;BME280;43914;57.680;11.982;2023-04-22T07:21:23;100611.47;;;11.99;51.14
54872;BME280;43914;57.680;11.982;2023-04-22T07:23:50;100608.70;;;12.01;51.26
54872;BME280;43914;57.680;11.982;2023-04-22T07:26:16;100611.60;;;12.05;51.18
54872;BME280;43914;57.680;11.982;2023-04-22T07:28:41;100610.70;;;12.10;50.70
54872;BME280;43914;57.680;11.982;2023-04-22T07:31:07;100605.84;;;12.16;50.41
54872;BME280;43914;57.680;11.982;2023-04-22T07:33:32;100600.31;;;12.19;49.88
54872;BME280;43914;57.680;11.982;2023-04-22T07:35:58;100595.95;;;12.25;49.76
54872;BME280;43914;57.680;11.982;2023-04-22T07:38:24;100595.73;;;12.31;49.44
54872;BME280;43914;57.680;11.982;2023-04-22T07:40:50;100591.70;;;12.33;48.93
54872;BME280;43914;57.680;11.982;2023-04-22T07:43:15;100593.79;;;12.39;48.79
54872;BME280;43914;57.680;11.982;2023-04-22T07:45:41;100589.02;;;12.47;47.97
54872;BME280;43914;57.680;11.982;2023-04-22T07:48:06;100590.56;;;12.53;47.59
54872;BME280;43914;57.680;11.982;2023-04-22T07:50:32;100588.70;;;12.63;49.78
54872;BME280;43914;57.680;11.982;2023-04-22T07:52:57;100585.39;;;12.94;51.21
54872;BME280;43914;57.680;11.982;2023-04-22T07:55:23;100582.55;;;13.04;47.91
54872;BME280;43914;57.680;11.982;2023-04-22T07:57:48;100584.63;;;13.08;45.57
54872;BME280;43914;57.680;11.982;2023-04-22T08:00:14;100581.71;;;13.07;43.48
54872;BME280;43914;57.680;11.982;2023-04-22T08:02:40;100579.11;;;13.07;43.52
54872;BME280;43914;57.680;11.982;2023-04-22T08:05:06;100573.89;;;13.09;42.87
54872;BME280;43914;57.680;11.982;2023-04-22T08:07:31;100573.89;;;13.09;42.73
54872;BME280;43914;57.680;11.982;2023-04-22T08:09:57;100570.32;;;13.09;43.05
54872;BME280;43914;57.680;11.982;2023-04-22T08:12:23;100576.75;;;13.16;42.95
54872;BME280;43914;57.680;11.982;2023-04-22T08:14:48;100573.45;;;13.18;42.80
54872;BME280;43914;57.680;11.982;2023-04-22T08:17:14;100571.27;;;13.23;42.06
54872;BME280;43914;57.680;11.982;2023-04-22T08:19:39;100572.45;;;13.30;41.81
54872;BME280;43914;57.680;11.982;2023-04-22T08:22:04;100563.77;;;13.38;41.14
54872;BME280;43914;57.680;11.982;2023-04-22T08:24:31;100559.98;;;13.42;40.92
54872;BME280;43914;57.680;11.982;2023-04-22T08:26:56;100562.67;;;13.51;40.66
54872;BME280;43914;57.680;11.982;2023-04-22T08:29:22;100558.45;;;13.59;40.27
54872;BME280;43914;57.680;11.982;2023-04-22T08:31:48;100544.89;;;13.66;40.22
54872;BME280;43914;57.680;11.982;2023-04-22T08:34:13;100546.38;;;13.79;39.23
54872;BME280;43914;57.680;11.982;2023-04-22T08:36:39;100550.14;;;13.89;38.33
54872;BME280;43914;57.680;11.982;2023-04-22T08:39:05;100546.05;;;13.91;37.95
54872;BME280;43914;57.680;11.982;2023-04-22T08:41:33;100548.33;;;13.98;37.39
54872;BME280;43914;57.680;11.982;2023-04-22T08:43:59;100542.73;;;14.04;37.65
54872;BME280;43914;57.680;11.982;2023-04-22T08:46:26;100540.84;;;14.12;37.23
54872;BME280;43914;57.680;11.982;2023-04-22T08:48:53;100538.52;;;14.21;37.01
54872;BME280;43914;57.680;11.982;2023-04-22T08:51:18;100536.78;;;14.32;36.27
54872;BME280;43914;57.680;11.982;2023-04-22T08:53:45;100536.76;;;14.39;35.71
54872;BME280;43914;57.680;11.982;2023-04-22T08:56:14;100536.95;;;14.48;35.90
54872;BME280;43914;57.680;11.982;2023-04-22T08:58:40;100533.29;;;14.59;35.75
54872;BME280;43914;57.680;11.982;2023-04-22T09:01:07;100527.28;;;14.68;35.80
54872;BME280;43914;57.680;11.982;2023-04-22T09:03:34;100529.86;;;14.78;35.68
54872;BME280;43914;57.680;11.982;2023-04-22T09:06:04;100530.76;;;14.83;35.15
54872;BME280;43914;57.680;11.982;2023-04-22T09:08:34;100527.46;;;14.85;35.10
54872;BME280;43914;57.680;11.982;2023-04-22T09:11:00;100527.92;;;14.91;35.09
54872;BME280;43914;57.680;11.982;2023-04-22T09:13:25;100529.06;;;14.94;35.07
54872;BME280;43914;57.680;11.982;2023-04-22T09:15:51;100522.88;;;14.97;34.91
54872;BME280;43914;57.680;11.982;2023-04-22T09:18:18;100525.02;;;15.01;35.31
54872;BME280;43914;57.680;11.982;2023-04-22T09:20:53;100529.50;;;15.08;35.29
54872;BME280;43914;57.680;11.982;2023-04-22T09:23:19;100523.85;;;15.07;35.56
54872;BME280;43914;57.680;11.982;2023-04-22T09:25:44;100525.71;;;15.08;36.04
54872;BME280;43914;57.680;11.982;2023-04-22T09:28:12;100529.84;;;15.13;36.29
54872;BME280;43914;57.680;11.982;2023-04-22T09:30:44;100526.70;;;15.18;36.55
54872;BME280;43914;57.680;11.982;2023-04-22T09:33:10;100530.70;;;15.22;36.78
54872;BME280;43914;57.680;11.982;2023-04-22T09:35:39;100534.91;;;15.26;36.42
54872;BME280;43914;57.680;11.982;2023-04-22T09:38:08;100527.14;;;15.24;36.10
54872;BME280;43914;57.680;11.982;2023-04-22T09:40:35;100528.94;;;15.27;37.21
54872;BME280;43914;57.680;11.982;2023-04-22T09:43:03;100525.98;;;15.27;36.19
54872;BME280;43914;57.680;11.982;2023-04-22T09:45:31;100527.95;;;15.32;35.83
54872;BME280;43914;57.680;11.982;2023-04-22T09:48:04;100524.25;;;15.36;35.53
54872;BME280;43914;57.680;11.982;2023-04-22T09:50:30;100516.46;;;15.40;35.02
54872;BME280;43914;57.680;11.982;2023-04-22T09:52:59;100514.51;;;15.45;34.97
54872;BME280;43914;57.680;11.982;2023-04-22T09:55:27;100515.32;;;15.52;34.52
54872;BME280;43914;57.680;11.982;2023-04-22T09:57:55;100512.89;;;15.56;34.26
54872;BME280;43914;57.680;11.982;2023-04-22T10:00:27;100512.44;;;15.61;33.90
54872;BME280;43914;57.680;11.982;2023-04-22T10:02:53;100503.56;;;15.64;33.57
54872;BME280;43914;57.680;11.982;2023-04-22T10:05:18;100503.02;;;15.68;34.07
54872;BME280;43914;57.680;11.982;2023-04-22T10:07:45;100498.48;;;15.76;33.80
54872;BME280;43914;57.680;11.982;2023-04-22T10:10:10;100497.36;;;15.80;33.11
54872;BME280;43914;57.680;11.982;2023-04-22T10:12:36;100496.84;;;15.85;32.78
54872;BME280;43914;57.680;11.982;2023-04-22T10:15:03;100480.27;;;15.83;32.72
54872;BME280;43914;57.680;11.982;2023-04-22T10:17:34;100482.69;;;15.94;32.70
54872;BME280;43914;57.680;11.982;2023-04-22T10:20:03;100479.38;;;16.02;32.82
54872;BME280;43914;57.680;11.982;2023-04-22T10:22:32;100480.41;;;16.10;32.53
54872;BME280;43914;57.680;11.982;2023-04-22T10:24:58;100471.66;;;16.19;32.09
54872;BME280;43914;57.680;11.982;2023-04-22T10:27:24;100473.73;;;16.30;31.49
54872;BME280;43914;57.680;11.982;2023-04-22T10:29:50;100470.08;;;16.34;31.29
54872;BME280;43914;57.680;11.982;2023-04-22T10:34:48;100466.09;;;16.43;30.84
54872;BME280;43914;57.680;11.982;2023-04-22T10:37:17;100447.00;;;16.41;31.03
54872;BME280;43914;57.680;11.982;2023-04-22T10:40:05;100461.02;;;16.64;30.07
54872;BME280;43914;57.680;11.982;2023-04-22T10:42:32;100454.26;;;16.66;29.23
54872;BME280;43914;57.680;11.982;2023-04-22T10:45:02;100448.23;;;16.71;29.14
54872;BME280;43914;57.680;11.982;2023-04-22T10:50:19;100443.66;;;16.93;29.47
54872;BME280;43914;57.680;11.982;2023-04-22T10:52:51;100440.63;;;16.99;29.17
54872;BME280;43914;57.680;11.982;2023-04-22T10:55:17;100428.25;;;17.07;29.14
54872;BME280;43914;57.680;11.982;2023-04-22T10:57:46;100430.20;;;17.22;28.71
54872;BME280;43914;57.680;11.982;2023-04-22T11:00:24;100422.82;;;17.29;28.41
54872;BME280;43914;57.680;11.982;2023-04-22T11:05:28;100427.72;;;17.57;28.69
54872;BME280;43914;57.680;11.982;2023-04-22T11:07:59;100422.84;;;17.60;28.20
54872;BME280;43914;57.680;11.982;2023-04-22T11:10:40;100415.90;;;17.58;28.28
54872;BME280;43914;57.680;11.982;2023-04-22T11:13:08;100414.77;;;17.56;28.36
54872;BME280;43914;57.680;11.982;2023-04-22T11:15:37;100406.08;;;17.59;28.54
54872;BME280;43914;57.680;11.982;2023-04-22T11:18:08;100405.73;;;17.68;28.76
54872;BME280;43914;57.680;11.982;2023-04-22T11:20:35;100405.54;;;17.83;28.48
54872;BME280;43914;57.680;11.982;2023-04-22T11:23:01;100404.96;;;17.93;28.08
54872;BME280;43914;57.680;11.982;2023-04-22T11:25:27;100404.64;;;18.00;27.93
54872;BME280;43914;57.680;11.982;2023-04-22T11:27:53;100397.71;;;18.05;29.24
54872;BME280;43914;57.680;11.982;2023-04-22T11:30:23;100397.71;;;18.16;30.62
54872;BME280;43914;57.680;11.982;2023-04-22T11:32:52;100398.87;;;18.26;31.18
54872;BME280;43914;57.680;11.982;2023-04-22T11:37:50;100391.27;;;18.43;29.78
54872;BME280;43914;57.680;11.982;2023-04-22T11:40:24;100394.55;;;18.54;29.11
54872;BME280;43914;57.680;11.982;2023-04-22T11:42:50;100388.51;;;18.56;29.26
54872;BME280;43914;57.680;11.982;2023-04-22T11:45:16;100386.55;;;18.63;28.82
54872;BME280;43914;57.680;11.982;2023-04-22T11:47:42;100382.44;;;18.65;29.09
54872;BME280;43914;57.680;11.982;2023-04-22T11:50:11;100383.11;;;18.70;30.82
54872;BME280;43914;57.680;11.982;2023-04-22T11:52:58;100383.86;;;18.75;29.86
54872;BME280;43914;57.680;11.982;2023-04-22T11:55:27;100381.71;;;18.70;30.40
54872;BME280;43914;57.680;11.982;2023-04-22T12:00:22;100386.10;;;18.80;30.70
54872;BME280;43914;57.680;11.982;2023-04-22T12:05:36;100380.77;;;18.84;32.08
54872;BME280;43914;57.680;11.982;2023-04-22T12:08:03;100383.95;;;19.01;30.07
54872;BME280;43914;57.680;11.982;2023-04-22T12:10:31;100378.52;;;19.10;29.74
54872;BME280;43914;57.680;11.982;2023-04-22T12:12:59;100378.74;;;19.15;29.76
54872;BME280;43914;57.680;11.982;2023-04-22T12:15:25;100383.54;;;19.15;29.88
54872;BME280;43914;57.680;11.982;2023-04-22T12:17:51;100384.06;;;19.24;30.00
54872;BME280;43914;57.680;11.982;2023-04-22T12:20:17;100379.83;;;19.38;29.88
54872;BME280;43914;57.680;11.982;2023-04-22T12:22:43;100376.92;;;19.50;29.54
54872;BME280;43914;57.680;11.982;2023-04-22T12:25:08;100358.51;;;19.59;29.85
54872;BME280;43914;57.680;11.982;2023-04-22T12:27:34;100375.04;;;19.79;29.12
54872;BME280;43914;57.680;11.982;2023-04-22T12:30:02;100373.80;;;19.61;28.92
54872;BME280;43914;57.680;11.982;2023-04-22T12:32:28;100372.56;;;19.50;28.88
54872;BME280;43914;57.680;11.982;2023-04-22T12:34:54;100367.74;;;19.40;29.26
54872;BME280;43914;57.680;11.982;2023-04-22T12:37:19;100359.23;;;19.47;29.72
54872;BME280;43914;57.680;11.982;2023-04-22T12:39:45;100356.66;;;19.70;29.35
54872;BME280;43914;57.680;11.982;2023-04-22T12:42:10;100350.69;;;19.86;29.10
54872;BME280;43914;57.680;11.982;2023-04-22T12:44:36;100351.75;;;19.88;28.85
54872;BME280;43914;57.680;11.982;2023-04-22T12:47:02;100344.66;;;19.88;28.88
54872;BME280;43914;57.680;11.982;2023-04-22T12:49:28;100342.38;;;20.09;29.91
54872;BME280;43914;57.680;11.982;2023-04-22T12:51:53;100342.61;;;20.35;30.03
54872;BME280;43914;57.680;11.982;2023-04-22T12:54:19;100339.52;;;20.59;29.97
54872;BME280;43914;57.680;11.982;2023-04-22T12:56:45;100329.33;;;20.81;28.98